METAR AND TAF INFORMATION

METAR FOR HECA
ADDS - METARS form results

(1447 UTC 21 May 2022)
Data provider http://aviationweather.gov/metar/data/
 
METAR text: HECA 211430Z 29011KT CAVOK 28/12 Q1011 NOSIG
Conditions at: HECA (CAIRO INTL AIRPO, EG) observed 1430 UTC 21 May 2022
Temperature: 28.0°C (82°F)
Dewpoint: 12.0°C (54°F) [RH = 37%]
Pressure (altimeter): 29.85 inches Hg (1011.0 mb)
Winds: from the WNW (290 degrees) at 13 MPH (11 knots; 5.7 m/s)
Visibility: 6 or more miles (10+ km)
Ceiling: ceiling and visibility are OK
Clouds: unknown
Weather: no significant weather observed at this time

METAR text: HECA 211400Z 28012KT CAVOK 29/13 Q1011 NOSIG
Conditions at: HECA (CAIRO INTL AIRPO, EG) observed 1400 UTC 21 May 2022
Temperature: 29.0°C (84°F)
Dewpoint: 13.0°C (55°F) [RH = 37%]
Pressure (altimeter): 29.85 inches Hg (1011.0 mb)
Winds: from the W (280 degrees) at 14 MPH (12 knots; 6.2 m/s)
Visibility: 6 or more miles (10+ km)
Ceiling: ceiling and visibility are OK
Clouds: unknown
Weather: no significant weather observed at this time

Forecast for: HECA (CAIRO INTL AIRPO, EG)
Text: TAF HECA 211100Z 2112/2218 30010KT CAVOK
Forecast period: 1200 UTC 21 May 2022 to 1800 UTC 22 May 2022
Forecast type: FROM: standard forecast or significant change
Winds: from the WNW (300 degrees) at 12 MPH (10 knots; 5.1 m/s)
Visibility: 6 or more miles (10+ km)
Ceiling: unknown
Clouds: missing
Weather: NSW  (no significant weather)

 

AIRPORT MAP

 

RUNWAY INFORMATION

Runway 05C Runway length 13120 ft Runway width 197 ft
Runway elevation 382 ft Runway displaced threshold 0 ft Runway heading 45
Runway 23C Runway length 13120 ft Runway width 197 ft
Runway elevation 0 ft Runway displaced threshold 0 ft Runway heading 225
Runway 05L Runway length 10830 ft Runway width 197 ft
Runway elevation 190 ft Runway displaced threshold 0 ft Runway heading 49
Runway 23R Runway length 10830 ft Runway width 197 ft
Runway elevation 199 ft Runway displaced threshold 0 ft Runway heading 229
Runway 05R Runway length 13124 ft Runway width 197 ft
Runway elevation 382 ft Runway displaced threshold 0 ft Runway heading 49
Runway 23L Runway length 13124 ft Runway width 197 ft
Runway elevation 375 ft Runway displaced threshold 0 ft Runway heading 229

 

AIRPORT FREQUENCIES

Type APP Name APP Frequency 119.05 MHZ
Type ATIS Name ATIS Frequency 122.6 MHZ
Type GND Name GND Frequency 121.9 MHZ
Type MISC Name VOLMET Frequency 126.2 MHZ
Type PFLT Name PREFLIGHT Frequency 120.1 MHZ
Type rdo Name cairo radi Frequency 11.3 MHZ
Type TWR Name TWR Frequency 118.1 MHZ
Type Volmet Name Frequency 124.6 MHZ

 

AIRPORT NEAR NAVIGATION AIDS

Type NDB Name Cairo Frequency 310 KHZ
Type VOR-DME Name Cairo Frequency 112500 KHZ
Type VOR-DME Name Cairo Frequency 115200 KHZ
Type NDB Name Cairo Frequency 317 KHZ